Maplewood, WI

3:44 AM CST on February 21, 2017 (GMT -0600)
MWINSW | | Change Station

Elev 688 ft 44.76 °N, 87.51 °W | Updated 3 days ago

Overcast
Overcast
37.0 °F
Feels Like 34 °F
N
4.0
Wind Variable Wind from SE

Today
High -- | Low -- °F
--% Chance of Precip.
Yesterday
High -- | Low -- °F
Precip. -- in
Pressure 29.83 in
Visibility 5.0 miles
Clouds Overcast 9500 ft
Windchill 34 °F
Dew Point 33.0 °F
Humidity 84%
Rainfall in
Snow Depth Not available.
6:40 AM 5:27 PM
Waning Crescent, 26% visible
METAR KSUE 210856Z AUTO 18012KT 5SM BR OVC095 06/06 A2975 RMK AO2 RAE25 SLP100 P0001 60005 T00610056 58013
Pressure 29.83 in
Visibility 5.0 miles
Clouds Overcast 9500 ft
Windchill 34 °F
Dew Point 33.0 °F
Humidity 84%
Rainfall in
Snow Depth Not available.
6:40 AM 5:27 PM
Waning Crescent, 26% visible
METAR KSUE 210856Z AUTO 18012KT 5SM BR OVC095 06/06 A2975 RMK AO2 RAE25 SLP100 P0001 60005 T00610056 58013

Get Your Daily Forecast Email!

Thanks for signing up!

Be on the lookout for a verification email in your inbox.

You'll start receiving the daily forecast at 8 AM.

×

10-Day Weather Forecast

Almanac

Astronomy

Feb. 21, 2017 Rise Set
Actual Time
Civil Twilight
Nautical Twilight
Astronomical Twilight
Moon
Length of Visible Light
Length of Day
Tomorrow will be .
, % of the Moon is Illuminated

Today's Extremes

State Highs State Lows

Community

WunderPhotos

Upload Photos

1,962,540 photos uploaded!

WunderBlog® & News

Nearby

Air Quality

  Air Quality AQ Index Pollutant
Not available.

Snow Depth

Station Depth Elevation

Earthquake Activity

City Distance Mag. Time & Date
Minimum magnitude displayed is 2.5.

Coastal Water Temperatures

Place Temperature

Stations

Nearby Weather Stations

Station Location Temp. Windchill Dew Point Humidity Wind Precip. Elev Updated Type
                   

Watches & Warnings

There are currently no watches in effect.